Time;durP1;ratioP1;P1;durP2;ratioP2;P2;SDS_P1;SDS_P2;PMS_P1;PMS_P2;Temp;Humidity;BMP_temperature;BMP_pressure;BME280_temperature;BME280_humidity;BME280_pressure;Samples;Min_cycle;Max_cycle;Signal;HPM_P1;HPM_P2
2022/11/11 00:01:16;;;;;;;2.60;0.75;;;30.10;50.30;;;;;;5013243;28;20048;-62
2022/11/11 00:03:44;;;;;;;2.78;0.90;;;30.10;50.40;;;;;;5025775;28;20029;-62
2022/11/11 00:06:13;;;;;;;5.07;1.17;;;30.20;51.40;;;;;;5041639;28;20040;-61
2022/11/11 00:08:42;;;;;;;7.93;2.00;;;30.20;48.80;;;;;;5033472;28;20483;-62
2022/11/11 00:11:11;;;;;;;5.35;2.25;;;30.20;48.00;;;;;;5031059;28;20566;-62
2022/11/11 00:13:40;;;;;;;2.80;1.17;;;29.80;49.30;;;;;;5025627;28;20057;-62
2022/11/11 00:16:12;;;;;;;2.22;0.73;;;30.00;51.00;;;;;;5025325;28;20030;-62
2022/11/11 00:26:39;;;;;;;2.80;1.08;;;31.10;49.10;;;;;;5034465;28;20290;-62
2022/11/11 00:29:07;;;;;;;4.18;1.10;;;31.50;50.30;;;;;;5048871;28;20033;-62
2022/11/11 00:32:21;;;;;;;3.60;1.33;;;31.60;49.10;;;;;;5039564;28;20017;-61
2022/11/11 00:34:22;;;;;;;3.92;1.35;;;31.80;47.20;;;;;;5038760;28;20124;-61
2022/11/11 00:36:49;;;;;;;3.60;0.70;;;31.30;50.70;;;;;;5031993;28;20116;-61
2022/11/11 00:39:17;;;;;;;2.85;0.77;;;30.90;48.80;;;;;;5037866;28;20568;-61
2022/11/11 00:41:44;;;;;;;3.63;0.90;;;30.50;50.90;;;;;;5036904;28;20478;-61
2022/11/11 00:44:11;;;;;;;2.75;0.93;;;30.50;48.90;;;;;;5035749;28;20033;-60
2022/11/11 00:52:08;;;;;;;5.00;1.65;;;29.80;49.30;;;;;;5038241;28;20603;-61
2022/11/11 00:54:36;;;;;;;5.30;1.40;;;30.00;49.10;;;;;;5030362;28;20029;-60
2022/11/11 00:57:03;;;;;;;6.43;2.33;;;30.40;47.60;;;;;;5032495;28;20016;-60
2022/11/11 00:59:30;;;;;;;2.38;1.13;;;30.60;46.90;;;;;;5034098;28;20037;-61
2022/11/11 01:01:57;;;;;;;5.82;1.00;;;30.30;47.40;;;;;;5030809;28;20024;-61
2022/11/11 01:04:28;;;;;;;11.98;1.52;;;30.50;48.90;;;;;;5022818;28;20053;-61
2022/11/11 01:06:55;;;;;;;3.83;1.20;;;30.60;50.00;;;;;;5030222;28;20389;-60
2022/11/11 01:09:22;;;;;;;3.05;1.10;;;30.50;46.60;;;;;;5032504;28;20041;-60
2022/11/11 01:11:50;;;;;;;4.57;1.02;;;30.80;49.60;;;;;;5031748;28;20036;-61
2022/11/11 01:14:17;;;;;;;3.63;1.65;;;31.00;47.00;;;;;;5034209;28;20040;-59
2022/11/11 01:16:44;;;;;;;3.90;1.15;;;30.60;49.00;;;;;;5030477;28;20030;-60
2022/11/11 01:19:11;;;;;;;3.95;0.70;;;30.90;47.30;;;;;;5032515;28;20034;-60
2022/11/11 01:21:38;;;;;;;3.47;0.82;;;30.60;46.90;;;;;;5031643;28;20403;-60
2022/11/11 01:24:06;;;;;;;2.28;0.80;;;30.70;46.10;;;;;;5032220;28;20017;-59
2022/11/11 01:26:33;;;;;;;3.05;0.70;;;30.50;49.00;;;;;;5032919;28;20441;-60
2022/11/11 01:29:00;;;;;;;3.38;0.70;;;30.90;47.30;;;;;;5033469;28;20509;-60
2022/11/11 01:31:28;;;;;;;1.75;0.85;;;31.20;47.90;;;;;;5035062;28;20462;-60
2022/11/11 01:33:55;;;;;;;1.33;0.40;;;31.30;47.30;;;;;;5036290;28;20057;-60
2022/11/11 01:36:24;;;;;;;3.78;0.70;;;31.20;45.90;;;;;;5031750;28;20049;-60
2022/11/11 01:38:53;;;;;;;1.20;0.52;;;31.00;46.00;;;;;;5034405;28;20056;-59
2022/11/11 01:41:33;;;;;;;3.75;0.82;;;31.00;48.80;;;;;;5031732;28;20378;-60
2022/11/11 01:44:12;;;;;;;1.75;0.77;;;31.00;47.40;;;;;;5030338;28;20083;-59
2022/11/11 01:46:45;;;;;;;1.77;0.68;;;31.20;47.40;;;;;;5029303;28;20095;-59
2022/11/11 01:49:30;;;;;;;5.55;0.88;;;31.60;47.90;;;;;;5031975;28;20144;-59
2022/11/11 01:52:06;;;;;;;3.42;1.10;;;31.90;48.70;;;;;;5026421;28;20095;-59
2022/11/11 01:54:47;;;;;;;2.55;0.77;;;32.00;47.40;;;;;;5027047;28;20064;-59
2022/11/11 01:57:21;;;;;;;2.20;0.80;;;31.30;45.00;;;;;;5026754;28;20026;-59
2022/11/11 01:59:59;;;;;;;4.03;0.57;;;31.40;47.20;;;;;;5039647;28;20064;-59
2022/11/11 02:02:48;;;;;;;3.42;0.60;;;31.50;47.30;;;;;;5045328;28;20117;-59
2022/11/11 02:08:11;;;;;;;1.15;0.52;;;30.90;45.00;;;;;;5039444;28;20534;-58
2022/11/11 02:10:42;;;;;;;2.40;1.15;;;31.00;48.60;;;;;;5027351;28;20030;-59
2022/11/11 02:15:59;;;;;;;4.82;1.38;;;32.20;47.00;;;;;;5022924;28;20045;-59
2022/11/11 02:18:27;;;;;;;6.30;0.77;;;32.40;45.50;;;;;;5044867;28;20075;-60
2022/11/11 02:20:54;;;;;;;2.60;0.70;;;32.10;44.80;;;;;;5032109;28;20076;-60
2022/11/11 02:23:51;;;;;;;1.60;0.50;;;32.10;45.60;;;;;;5037932;28;20017;-59
2022/11/11 02:26:19;;;;;;;2.58;0.60;;;32.20;44.40;;;;;;5050012;28;20037;-59
2022/11/11 02:28:47;;;;;;;5.28;0.70;;;31.90;46.70;;;;;;5047066;28;20060;-59
2022/11/11 02:31:14;;;;;;;2.17;0.63;;;32.00;46.80;;;;;;5034999;28;20075;-59
2022/11/11 02:33:41;;;;;;;4.80;0.90;;;32.20;47.40;;;;;;5041723;28;20478;-60
2022/11/11 02:36:14;;;;;;;2.20;0.70;;;31.90;44.50;;;;;;5042388;28;20308;-61
2022/11/11 02:38:42;;;;;;;2.42;0.57;;;31.50;45.20;;;;;;5033160;28;20025;-60
2022/11/11 02:43:54;;;;;;;1.90;0.70;;;31.90;46.90;;;;;;5024014;28;20477;-61
2022/11/11 02:46:22;;;;;;;3.97;0.65;;;32.00;49.20;;;;;;5026659;28;20030;-61
2022/11/11 02:48:49;;;;;;;2.55;0.68;;;32.10;47.00;;;;;;5019823;28;20053;-64
2022/11/11 02:51:16;;;;;;;3.60;0.70;;;32.10;47.00;;;;;;5020074;28;20017;-60
2022/11/11 02:53:43;;;;;;;4.20;0.70;;;32.00;46.10;;;;;;5039751;28;20038;-61
2022/11/11 02:56:11;;;;;;;2.72;0.70;;;31.90;48.80;;;;;;5038712;28;20108;-61
2022/11/11 02:58:38;;;;;;;4.38;0.80;;;32.00;48.00;;;;;;5029942;28;20029;-61
2022/11/11 03:01:05;;;;;;;2.15;0.77;;;31.80;47.90;;;;;;5040765;28;20025;-60
2022/11/11 03:03:32;;;;;;;2.42;0.50;;;31.80;46.10;;;;;;5027881;28;20030;-61
2022/11/11 03:05:59;;;;;;;0.77;0.40;;;31.80;46.70;;;;;;5035311;28;20060;-61
2022/11/11 03:08:27;;;;;;;1.00;0.40;;;31.60;47.40;;;;;;5027982;28;20069;-60
2022/11/11 03:10:54;;;;;;;3.53;0.60;;;31.50;46.80;;;;;;5034995;28;20568;-60
2022/11/11 03:13:21;;;;;;;1.92;0.60;;;31.30;46.80;;;;;;5037174;28;20031;-60
2022/11/11 03:15:48;;;;;;;2.55;0.70;;;30.90;47.40;;;;;;5032820;28;20025;-61
2022/11/11 03:18:15;;;;;;;2.28;0.45;;;30.40;47.50;;;;;;5042738;28;20146;-60
2022/11/11 03:21:03;;;;;;;1.30;0.57;;;30.00;48.20;;;;;;5032220;28;20041;-62
2022/11/11 03:23:31;;;;;;;1.90;0.60;;;29.80;48.60;;;;;;5042881;28;20021;-61
2022/11/11 03:25:58;;;;;;;2.97;0.82;;;29.50;49.50;;;;;;5034107;28;20104;-61
2022/11/11 03:28:26;;;;;;;1.38;0.60;;;29.10;49.30;;;;;;5044742;28;20420;-60
2022/11/11 03:30:53;;;;;;;0.88;0.47;;;28.70;50.00;;;;;;5032607;28;20049;-61
2022/11/11 03:33:21;;;;;;;6.43;0.65;;;28.40;50.20;;;;;;5026772;28;20075;-61
2022/11/11 03:35:48;;;;;;;0.93;0.43;;;28.00;51.70;;;;;;5036962;28;20029;-62
2022/11/11 03:38:17;;;;;;;2.67;0.88;;;27.60;53.40;;;;;;5027395;28;20096;-61
2022/11/11 03:40:46;;;;;;;2.97;0.80;;;27.20;56.90;;;;;;5031091;28;20065;-53
2022/11/11 03:43:15;;;;;;;2.45;0.80;;;26.70;61.40;;;;;;5026972;28;20021;-50
2022/11/11 03:45:43;;;;;;;7.28;1.52;;;26.20;69.30;;;;;;5033260;28;20544;-54
2022/11/11 03:48:11;;;;;;;14.38;3.25;;;25.30;80.10;;;;;;5034628;28;20060;-51
2022/11/11 03:50:38;;;;;;;8.48;1.38;;;24.60;87.90;;;;;;5028199;28;20382;-54
2022/11/11 03:53:06;;;;;;;4.53;1.20;;;24.00;91.50;;;;;;5029885;28;20047;-54
2022/11/11 03:55:33;;;;;;;3.50;1.30;;;23.40;92.90;;;;;;5034859;28;20107;-51
2022/11/11 03:58:00;;;;;;;6.10;1.20;;;23.00;94.20;;;;;;5037946;28;20507;-55
2022/11/11 04:00:28;;;;;;;3.42;1.15;;;22.80;94.40;;;;;;5040021;28;20035;-51
2022/11/11 04:11:47;;;;;;;4.32;1.55;;;22.90;93.20;;;;;;5030242;28;20052;-56
2022/11/11 04:16:59;;;;;;;1.63;1.45;;;23.10;92.10;;;;;;5032855;28;20016;-56
2022/11/11 04:22:11;;;;;;;3.60;1.00;;;23.10;93.00;;;;;;5040700;28;20043;-57
2022/11/11 04:27:24;;;;;;;1.55;1.00;;;23.00;92.70;;;;;;5023955;28;20036;-57
2022/11/11 04:29:51;;;;;;;4.25;0.90;;;23.00;92.80;;;;;;5039399;28;20033;-58
2022/11/11 04:32:54;;;;;;;2.08;1.20;;;23.00;94.40;;;;;;5035599;28;20159;-56
2022/11/11 04:35:14;;;;;;;3.92;1.33;;;22.90;96.40;;;;;;5032535;28;20411;-56
2022/11/11 04:37:49;;;;;;;2.53;0.80;;;22.90;96.10;;;;;;5040089;28;20147;-56
2022/11/11 04:43:02;;;;;;;5.82;1.30;;;22.80;97.20;;;;;;5045060;28;20044;-56
2022/11/11 04:45:35;;;;;;;7.90;1.17;;;22.80;96.40;;;;;;5030244;28;20063;-57
2022/11/11 04:48:12;;;;;;;1.77;0.90;;;22.90;96.60;;;;;;5036067;28;20025;-57
2022/11/11 04:50:41;;;;;;;3.42;1.13;;;22.90;96.80;;;;;;5044111;28;20520;-58
2022/11/11 04:53:12;;;;;;;5.55;1.20;;;23.10;96.90;;;;;;5021630;28;20048;-58
2022/11/11 04:58:27;;;;;;;2.22;0.85;;;23.30;95.20;;;;;;5032229;28;20067;-58
2022/11/11 05:00:54;;;;;;;6.80;1.20;;;23.40;95.60;;;;;;5031632;28;20160;-58
2022/11/11 05:03:25;;;;;;;4.47;1.08;;;23.50;95.20;;;;;;5025681;28;20422;-59
2022/11/11 05:08:55;;;;;;;2.38;1.00;;;23.60;93.70;;;;;;5028547;28;20052;-57
2022/11/11 05:11:25;;;;;;;1.38;0.68;;;23.70;93.10;;;;;;5030042;28;20073;-57
2022/11/11 05:22:23;;;;;;;2.72;1.42;;;23.80;93.00;;;;;;5028862;28;20101;-57
2022/11/11 05:27:36;;;;;;;1.38;0.75;;;23.80;91.90;;;;;;5026599;28;20109;-57
2022/11/11 05:30:05;;;;;;;2.67;0.70;;;23.80;93.80;;;;;;5029111;28;20045;-58
2022/11/11 05:32:32;;;;;;;2.83;1.50;;;23.70;91.60;;;;;;5017108;28;20037;-58
2022/11/11 05:34:59;;;;;;;7.65;1.77;;;23.60;90.70;;;;;;5027979;28;20039;-58
2022/11/11 05:37:26;;;;;;;7.75;1.70;;;23.60;90.60;;;;;;5037767;28;20083;-59
2022/11/11 05:39:54;;;;;;;2.83;1.55;;;23.70;90.60;;;;;;5040868;28;20022;-58
2022/11/11 05:42:21;;;;;;;6.50;1.40;;;23.70;88.00;;;;;;5044921;28;20039;-59
2022/11/11 05:44:49;;;;;;;6.30;1.50;;;23.80;89.70;;;;;;5031797;28;20064;-60
2022/11/11 05:47:16;;;;;;;2.38;1.20;;;23.90;89.50;;;;;;5033909;28;20032;-56
2022/11/11 05:49:44;;;;;;;3.67;1.20;;;23.90;86.50;;;;;;5029947;28;20041;-57
2022/11/11 05:52:12;;;;;;;4.30;1.50;;;24.10;87.00;;;;;;5028433;28;20100;-57
2022/11/11 05:54:40;;;;;;;6.25;1.30;;;24.20;87.30;;;;;;5029970;28;20021;-58
2022/11/11 05:57:07;;;;;;;6.20;1.23;;;24.40;86.90;;;;;;5027620;28;20030;-57
2022/11/11 05:59:34;;;;;;;3.15;1.20;;;24.60;84.60;;;;;;5026476;28;20021;-59
2022/11/11 06:02:02;;;;;;;3.33;0.82;;;24.60;84.20;;;;;;5030616;28;20025;-59
2022/11/11 06:04:30;;;;;;;2.03;0.88;;;24.70;83.30;;;;;;5031125;28;20104;-56
2022/11/11 06:06:57;;;;;;;3.15;1.30;;;24.70;83.00;;;;;;5029113;28;20026;-56
2022/11/11 06:09:24;;;;;;;4.85;1.10;;;24.80;84.10;;;;;;5027725;28;20041;-54
2022/11/11 06:11:52;;;;;;;2.17;0.90;;;24.70;83.50;;;;;;5030413;28;20109;-56
2022/11/11 06:14:19;;;;;;;5.20;1.17;;;24.60;83.90;;;;;;5027263;28;20030;-55
2022/11/11 06:16:46;;;;;;;4.97;1.10;;;24.50;85.70;;;;;;5031405;28;20025;-56
2022/11/11 06:19:13;;;;;;;4.15;1.13;;;24.30;85.30;;;;;;5036882;28;20027;-55
2022/11/11 06:21:56;;;;;;;2.47;1.02;;;24.20;85.90;;;;;;5032574;28;20475;-54
2022/11/11 06:24:23;;;;;;;5.13;0.95;;;24.10;87.00;;;;;;5033472;28;20108;-57
2022/11/11 06:26:50;;;;;;;3.33;1.08;;;24.00;87.00;;;;;;5040701;28;20029;-58
2022/11/11 06:29:18;;;;;;;3.47;1.60;;;23.80;87.20;;;;;;5042907;28;20037;-56
2022/11/11 06:31:45;;;;;;;2.70;1.08;;;23.70;87.90;;;;;;5030588;28;20026;-54
2022/11/11 06:34:12;;;;;;;5.25;0.85;;;23.60;87.50;;;;;;5037577;28;20033;-58
2022/11/11 06:36:39;;;;;;;1.95;0.80;;;23.50;88.40;;;;;;5030225;28;20018;-57
2022/11/11 06:39:07;;;;;;;4.57;1.30;;;23.60;89.20;;;;;;5032567;28;20036;-58
2022/11/11 06:41:34;;;;;;;3.60;1.10;;;23.50;89.40;;;;;;5036821;28;20159;-58
2022/11/11 06:44:01;;;;;;;2.78;0.90;;;23.50;90.50;;;;;;5033991;28;20523;-55
2022/11/11 06:46:29;;;;;;;3.65;1.33;;;23.60;90.50;;;;;;5037431;28;20112;-55
2022/11/11 06:48:56;;;;;;;4.47;1.23;;;23.50;90.80;;;;;;5031148;28;20120;-56
2022/11/11 06:51:23;;;;;;;2.47;1.27;;;23.60;90.90;;;;;;5030352;28;20032;-57
2022/11/11 06:53:51;;;;;;;3.90;1.35;;;23.50;91.60;;;;;;5029548;28;20508;-58
2022/11/11 06:56:18;;;;;;;2.20;1.00;;;23.40;91.80;;;;;;5039270;28;21297;-57
2022/11/11 06:58:45;;;;;;;2.70;0.90;;;23.30;91.70;;;;;;5039865;28;20029;-56
2022/11/11 07:01:13;;;;;;;3.53;0.95;;;23.30;91.90;;;;;;5038092;28;20112;-55
2022/11/11 07:03:40;;;;;;;1.70;0.80;;;23.30;91.80;;;;;;5037618;28;20079;-52
2022/11/11 07:06:07;;;;;;;3.95;1.00;;;23.50;91.80;;;;;;5037517;28;20549;-57
2022/11/11 07:08:35;;;;;;;0.90;0.60;;;23.70;91.50;;;;;;5029193;28;20042;-58
2022/11/11 07:11:02;;;;;;;1.95;0.98;;;23.90;91.10;;;;;;5028910;28;20033;-58
2022/11/11 07:13:29;;;;;;;4.57;0.90;;;24.10;90.80;;;;;;5025911;28;20074;-55
2022/11/11 07:15:56;;;;;;;6.10;0.93;;;24.00;90.60;;;;;;5024783;28;20036;-59
2022/11/11 07:18:24;;;;;;;3.42;0.80;;;23.90;90.80;;;;;;5037855;28;20036;-56
2022/11/11 07:20:51;;;;;;;2.40;0.80;;;23.80;91.40;;;;;;5031753;28;20033;-57
2022/11/11 07:23:19;;;;;;;1.92;0.82;;;23.70;91.30;;;;;;5032020;28;20056;-57
2022/11/11 07:25:46;;;;;;;2.55;0.80;;;23.60;91.80;;;;;;5031647;28;20017;-59
2022/11/11 07:28:13;;;;;;;3.30;0.98;;;23.40;92.10;;;;;;5029216;28;20543;-57
2022/11/11 07:30:41;;;;;;;3.13;1.08;;;23.40;92.50;;;;;;5040215;28;20033;-59
2022/11/11 07:33:08;;;;;;;2.95;0.85;;;23.20;92.90;;;;;;5026608;28;20030;-55
2022/11/11 07:35:35;;;;;;;5.03;1.85;;;23.00;93.30;;;;;;5030202;28;20107;-59
2022/11/11 07:38:03;;;;;;;4.47;1.30;;;22.80;93.50;;;;;;5030604;28;20033;-57
2022/11/11 07:40:30;;;;;;;3.17;1.10;;;22.70;94.00;;;;;;5037214;28;20027;-59
2022/11/11 07:42:57;;;;;;;2.35;1.25;;;22.60;94.40;;;;;;5032470;28;20136;-56
2022/11/11 07:45:24;;;;;;;1.48;0.93;;;22.40;94.60;;;;;;5030925;28;20025;-56
2022/11/11 07:47:51;;;;;;;4.30;1.10;;;22.30;94.80;;;;;;5026332;28;20025;-56
2022/11/11 07:50:19;;;;;;;3.75;1.00;;;22.20;95.30;;;;;;5037071;28;20401;-58
2022/11/11 07:52:49;;;;;;;2.20;1.15;;;22.20;95.80;;;;;;5032015;28;20528;-57
2022/11/11 07:55:17;;;;;;;2.05;0.82;;;22.10;96.00;;;;;;5037500;28;20408;-55
2022/11/11 07:57:44;;;;;;;3.17;1.20;;;22.00;96.10;;;;;;5037848;28;20147;-57
2022/11/11 08:00:12;;;;;;;1.92;1.02;;;22.00;96.40;;;;;;5035379;28;20025;-55
2022/11/11 08:02:39;;;;;;;5.03;1.23;;;21.90;96.80;;;;;;5025811;28;20017;-51
2022/11/11 08:05:08;;;;;;;2.38;1.20;;;21.80;97.00;;;;;;5044124;28;20037;-55
2022/11/11 08:07:36;;;;;;;1.63;1.00;;;21.70;97.30;;;;;;5028071;28;20397;-57
2022/11/11 08:10:04;;;;;;;4.65;1.45;;;21.70;97.60;;;;;;5026097;28;20037;-53
2022/11/11 08:15:16;;;;;;;7.25;1.40;;;21.50;97.70;;;;;;5016313;28;20055;-56
2022/11/11 08:17:43;;;;;;;2.88;1.02;;;21.40;98.10;;;;;;5029368;28;20048;-55
2022/11/11 08:20:12;;;;;;;2.85;1.10;;;21.20;98.10;;;;;;5037360;28;20025;-54
2022/11/11 08:22:40;;;;;;;3.85;1.30;;;21.10;98.60;;;;;;5044871;28;20082;-54
2022/11/11 08:25:10;;;;;;;3.85;1.15;;;21.00;99.00;;;;;;5019526;28;20543;-58
2022/11/11 08:27:37;;;;;;;3.35;1.35;;;20.80;99.30;;;;;;5035966;28;20013;-54
2022/11/11 08:30:06;;;;;;;3.13;1.27;;;20.70;99.70;;;;;;5033818;28;20037;-54
2022/11/11 08:32:33;;;;;;;4.05;1.23;;;20.60;99.90;;;;;;5046603;28;20029;-54
2022/11/11 08:35:01;;;;;;;2.63;1.38;;;20.50;99.90;;;;;;5022413;28;20053;-52
2022/11/11 08:37:28;;;;;;;9.60;1.55;;;20.40;99.90;;;;;;5026696;28;20021;-60
2022/11/11 08:39:56;;;;;;;1.90;1.27;;;20.30;99.90;;;;;;5022367;28;20024;-60
2022/11/11 08:42:24;;;;;;;2.60;1.10;;;20.20;99.90;;;;;;5025700;28;20025;-61
2022/11/11 08:44:51;;;;;;;3.55;1.40;;;20.10;99.90;;;;;;5029054;28;20187;-60
2022/11/11 08:47:19;;;;;;;2.53;1.60;;;20.00;99.90;;;;;;5031070;28;20378;-60
2022/11/11 08:49:48;;;;;;;4.10;1.33;;;19.90;99.90;;;;;;5030617;28;20566;-61
2022/11/11 08:52:16;;;;;;;4.57;1.63;;;19.80;99.90;;;;;;5030484;28;20049;-60
2022/11/11 08:54:43;;;;;;;2.53;1.02;;;19.80;99.90;;;;;;5030116;28;20474;-60
2022/11/11 08:57:10;;;;;;;2.80;1.63;;;19.60;99.90;;;;;;5030052;28;20028;-61
2022/11/11 08:59:37;;;;;;;10.30;4.03;;;19.50;99.90;;;;;;5030192;28;20022;-60
2022/11/11 09:02:05;;;;;;;19.25;6.18;;;19.50;99.90;;;;;;5029975;28;20029;-60
2022/11/11 09:04:32;;;;;;;16.08;6.30;;;19.50;99.90;;;;;;5030185;28;20622;-60
2022/11/11 09:06:59;;;;;;;12.05;4.57;;;19.40;99.90;;;;;;5029986;28;20021;-60
2022/11/11 09:09:26;;;;;;;8.07;2.30;;;19.40;99.90;;;;;;5029930;28;20049;-60
2022/11/11 09:11:53;;;;;;;4.95;2.72;;;19.40;99.90;;;;;;5030021;28;20377;-60
2022/11/11 09:14:21;;;;;;;3.08;1.63;;;19.30;99.90;;;;;;5028666;28;20033;-60
2022/11/11 09:16:48;;;;;;;3.45;1.70;;;19.30;99.90;;;;;;5030404;28;20049;-60
2022/11/11 09:19:15;;;;;;;5.18;1.98;;;19.30;99.90;;;;;;5029688;28;20044;-59
2022/11/11 09:21:42;;;;;;;6.93;1.90;;;19.20;99.90;;;;;;5028266;28;20803;-59
2022/11/11 09:24:10;;;;;;;3.05;1.92;;;19.10;99.90;;;;;;5029602;28;20092;-57
2022/11/11 09:26:37;;;;;;;4.88;2.00;;;19.00;99.90;;;;;;5027648;28;20556;-58
2022/11/11 09:29:04;;;;;;;3.97;2.10;;;18.90;99.90;;;;;;5030617;28;20037;-58
2022/11/11 09:31:31;;;;;;;4.75;2.15;;;18.80;99.90;;;;;;5031826;28;20018;-59
2022/11/11 09:33:59;;;;;;;6.07;2.33;;;18.70;99.90;;;;;;5031988;28;20407;-59
2022/11/11 09:36:26;;;;;;;5.45;2.65;;;18.60;99.90;;;;;;5031145;28;20025;-59
2022/11/11 09:38:54;;;;;;;5.38;2.78;;;18.50;99.90;;;;;;5031347;28;20482;-60
2022/11/11 09:41:52;;;;;;;7.18;3.00;;;18.40;99.90;;;;;;5031736;28;20025;-60
2022/11/11 09:44:47;;;;;;;13.80;5.30;;;18.30;99.90;;;;;;5032087;28;20025;-63
2022/11/11 09:47:14;;;;;;;6.20;2.85;;;18.30;99.90;;;;;;5031956;28;20048;-59
2022/11/11 09:50:05;;;;;;;4.65;2.42;;;18.20;99.90;;;;;;5030191;28;20041;-59
2022/11/11 09:53:00;;;;;;;5.18;2.28;;;18.30;99.90;;;;;;5031272;28;20188;-60
2022/11/11 09:55:41;;;;;;;5.07;1.83;;;18.30;99.90;;;;;;5029703;28;20025;-60
2022/11/11 09:58:19;;;;;;;3.20;1.50;;;18.30;99.90;;;;;;5031496;28;20414;-59
2022/11/11 10:00:58;;;;;;;5.88;1.63;;;18.20;99.90;;;;;;5032000;28;20104;-60
2022/11/11 10:03:29;;;;;;;4.25;1.92;;;18.30;99.90;;;;;;5030109;28;20025;-60
2022/11/11 10:05:59;;;;;;;3.17;1.35;;;18.40;99.90;;;;;;5030054;28;20572;-60
2022/11/11 10:08:46;;;;;;;2.80;1.40;;;18.40;99.90;;;;;;5031236;28;20037;-60
2022/11/11 10:11:51;;;;;;;3.20;1.40;;;18.30;99.90;;;;;;5031409;28;20036;-59
2022/11/11 10:14:18;;;;;;;2.33;1.30;;;18.30;99.90;;;;;;5030729;28;20038;-59
2022/11/11 10:17:25;;;;;;;2.08;1.30;;;18.30;99.90;;;;;;5031546;28;20034;-59
2022/11/11 10:20:18;;;;;;;2.22;1.30;;;18.20;99.90;;;;;;5031004;28;20023;-60
2022/11/11 10:22:48;;;;;;;6.43;1.65;;;18.10;99.90;;;;;;5031277;28;20064;-60
2022/11/11 10:25:21;;;;;;;3.42;1.50;;;18.10;99.90;;;;;;5031062;28;20120;-60
2022/11/11 10:27:53;;;;;;;5.63;2.33;;;18.10;99.90;;;;;;5031693;28;20025;-59
2022/11/11 10:30:31;;;;;;;2.75;1.40;;;18.10;99.90;;;;;;5031321;28;20033;-60
2022/11/11 10:33:03;;;;;;;4.28;1.40;;;18.00;99.90;;;;;;5030339;28;20022;-58
2022/11/11 10:35:32;;;;;;;4.95;2.00;;;18.00;99.90;;;;;;5027612;28;20026;-59
2022/11/11 10:38:21;;;;;;;4.10;1.05;;;17.90;99.90;;;;;;5030662;28;20014;-58
2022/11/11 10:40:56;;;;;;;4.20;1.65;;;17.80;99.90;;;;;;5029233;28;20039;-60
2022/11/11 10:43:27;;;;;;;2.92;1.77;;;17.70;99.90;;;;;;5030248;28;20025;-59
2022/11/11 10:46:13;;;;;;;3.78;1.48;;;17.60;99.90;;;;;;5046000;28;20068;-59
2022/11/11 10:48:52;;;;;;;3.08;1.63;;;17.50;99.90;;;;;;5028626;28;20084;-58
2022/11/11 10:51:20;;;;;;;5.93;1.65;;;17.50;99.90;;;;;;5030904;28;20021;-59
2022/11/11 10:54:06;;;;;;;5.72;1.45;;;17.40;99.90;;;;;;5030654;28;20045;-59
2022/11/11 10:56:42;;;;;;;3.35;1.40;;;17.40;99.90;;;;;;5030331;28;20029;-59
2022/11/11 10:59:28;;;;;;;3.55;1.40;;;17.30;99.90;;;;;;5029279;28;20033;-58
2022/11/11 11:02:18;;;;;;;4.47;1.92;;;17.30;99.90;;;;;;5030193;28;20045;-59
2022/11/11 11:05:26;;;;;;;4.22;1.75;;;17.20;99.90;;;;;;5030505;28;20033;-58
2022/11/11 11:08:01;;;;;;;2.25;1.42;;;17.20;99.90;;;;;;5028549;28;20029;-59
2022/11/11 11:10:39;;;;;;;3.22;1.60;;;17.20;99.90;;;;;;5029379;28;20033;-59
2022/11/11 11:13:29;;;;;;;3.08;1.73;;;17.20;99.90;;;;;;5030184;28;20100;-59
2022/11/11 11:16:06;;;;;;;3.83;1.92;;;17.20;99.90;;;;;;5029289;28;20064;-59
2022/11/11 11:18:33;;;;;;;3.20;2.05;;;17.20;99.90;;;;;;5029191;28;20029;-60
2022/11/11 11:21:06;;;;;;;6.28;2.03;;;17.20;99.90;;;;;;5029636;28;20034;-59
2022/11/11 11:23:42;;;;;;;4.30;2.00;;;17.20;99.90;;;;;;5026019;28;20101;-60
2022/11/11 11:26:12;;;;;;;3.63;2.00;;;17.20;99.90;;;;;;5029084;28;20075;-59
2022/11/11 11:29:02;;;;;;;3.17;2.10;;;17.20;99.90;;;;;;5028325;28;20049;-60
2022/11/11 11:31:41;;;;;;;5.07;2.10;;;17.10;99.90;;;;;;5015685;28;20084;-60
2022/11/11 11:34:09;;;;;;;3.85;2.05;;;17.10;99.90;;;;;;5029680;28;20053;-60
2022/11/11 11:36:36;;;;;;;5.05;2.20;;;17.00;99.90;;;;;;5029217;28;20033;-60
2022/11/11 11:39:03;;;;;;;4.93;2.22;;;17.00;99.90;;;;;;5027875;28;20029;-60
2022/11/11 11:41:57;;;;;;;4.40;1.70;;;17.00;99.90;;;;;;5029189;28;20022;-60
2022/11/11 11:44:29;;;;;;;4.80;1.88;;;16.90;99.90;;;;;;5026557;28;20124;-60
2022/11/11 11:47:26;;;;;;;6.13;2.80;;;16.80;99.90;;;;;;5028460;28;20051;-60
2022/11/11 11:50:20;;;;;;;1.98;1.35;;;16.90;99.90;;;;;;5028478;28;20397;-60
2022/11/11 11:53:14;;;;;;;3.03;1.70;;;16.90;99.90;;;;;;5029903;28;20041;-59
2022/11/11 11:56:08;;;;;;;3.65;2.00;;;16.80;99.90;;;;;;5011291;28;20126;-59
2022/11/11 11:59:03;;;;;;;7.32;1.60;;;16.80;99.90;;;;;;5038251;28;20041;-59
2022/11/11 12:01:36;;;;;;;5.05;1.95;;;16.80;99.90;;;;;;5028565;28;20025;-59
2022/11/11 12:04:12;;;;;;;2.78;1.80;;;16.80;99.90;;;;;;5029617;28;20018;-60
2022/11/11 12:07:16;;;;;;;4.38;1.65;;;16.70;99.90;;;;;;5029360;28;20033;-60
2022/11/11 12:10:10;;;;;;;2.47;1.40;;;16.70;99.90;;;;;;5029159;28;20040;-60
2022/11/11 12:13:03;;;;;;;6.28;2.22;;;16.60;99.90;;;;;;5029206;28;20021;-60
2022/11/11 12:16:00;;;;;;;4.30;1.77;;;16.60;99.90;;;;;;5028062;28;20064;-61
2022/11/11 12:18:51;;;;;;;3.60;2.17;;;16.50;99.90;;;;;;5009668;28;20052;-60
2022/11/11 12:21:23;;;;;;;6.65;1.90;;;16.50;99.90;;;;;;5025770;28;20071;-60
2022/11/11 12:24:20;;;;;;;4.68;1.63;;;16.50;99.90;;;;;;5033547;28;20052;-59
2022/11/11 12:27:21;;;;;;;2.30;1.60;;;16.40;99.90;;;;;;5032686;28;20440;-59
2022/11/11 12:30:07;;;;;;;3.45;1.90;;;16.40;99.90;;;;;;5021238;28;20064;-61
2022/11/11 12:32:42;;;;;;;6.32;1.67;;;16.30;99.90;;;;;;5027170;28;20029;-59
2022/11/11 12:35:48;;;;;;;6.50;1.80;;;16.30;99.90;;;;;;5033344;28;20024;-59
2022/11/11 12:38:27;;;;;;;3.67;2.22;;;16.20;99.90;;;;;;5031572;28;20129;-59
2022/11/11 12:41:01;;;;;;;4.05;2.00;;;16.20;99.90;;;;;;5032846;28;20385;-59
2022/11/11 12:43:50;;;;;;;4.90;2.45;;;16.20;99.90;;;;;;5011755;28;20029;-60
2022/11/11 12:46:51;;;;;;;5.03;3.20;;;16.10;99.90;;;;;;5020659;28;20034;-59
2022/11/11 12:49:36;;;;;;;7.63;4.07;;;16.10;99.90;;;;;;5031228;28;20033;-59
2022/11/11 12:52:17;;;;;;;8.20;4.60;;;16.10;99.90;;;;;;5032576;28;20033;-59
2022/11/11 12:54:54;;;;;;;7.15;4.10;;;16.00;99.90;;;;;;5031780;28;20033;-60
2022/11/11 12:57:35;;;;;;;14.68;5.68;;;16.00;99.90;;;;;;5018929;28;20029;-60
2022/11/11 13:00:11;;;;;;;6.65;3.85;;;15.90;99.90;;;;;;5029722;28;20038;-59
2022/11/11 13:02:54;;;;;;;6.78;3.63;;;15.90;99.90;;;;;;5024815;28;20031;-62
2022/11/11 13:05:42;;;;;;;5.93;3.00;;;15.90;99.90;;;;;;5029548;28;20029;-59
2022/11/11 13:08:42;;;;;;;5.32;3.03;;;15.90;99.90;;;;;;5018964;28;20049;-59
2022/11/11 13:11:18;;;;;;;7.03;3.10;;;15.80;99.90;;;;;;5020059;28;20033;-59
2022/11/11 13:14:03;;;;;;;4.18;2.92;;;15.70;99.90;;;;;;5019713;28;20454;-60
2022/11/11 13:16:31;;;;;;;7.32;3.22;;;15.70;99.90;;;;;;5032268;28;20029;-60
2022/11/11 13:19:04;;;;;;;7.25;3.45;;;15.70;99.90;;;;;;5032259;28;20414;-59
2022/11/11 13:21:57;;;;;;;7.97;2.90;;;15.80;99.90;;;;;;5031613;28;20033;-60
2022/11/11 13:24:24;;;;;;;5.45;2.90;;;15.80;99.90;;;;;;5031988;28;20022;-60
2022/11/11 13:27:00;;;;;;;7.55;3.30;;;15.80;99.90;;;;;;5032357;28;20033;-60
2022/11/11 13:29:54;;;;;;;8.20;3.13;;;15.80;99.90;;;;;;5031798;28;20033;-59
2022/11/11 13:32:28;;;;;;;9.32;3.97;;;15.80;99.90;;;;;;5031465;28;20651;-60
2022/11/11 13:34:56;;;;;;;6.13;3.55;;;15.80;99.90;;;;;;5031856;28;20033;-59
2022/11/11 13:37:31;;;;;;;6.20;4.30;;;15.70;99.90;;;;;;5044658;28;20052;-62
2022/11/11 13:40:22;;;;;;;7.25;3.05;;;15.70;99.90;;;;;;5031969;28;20397;-60
2022/11/11 13:42:52;;;;;;;9.55;4.10;;;15.70;99.90;;;;;;5032082;28;20091;-60
2022/11/11 13:45:32;;;;;;;4.22;2.47;;;15.70;99.90;;;;;;5034731;28;20156;-60
2022/11/11 13:48:00;;;;;;;3.70;3.00;;;15.70;99.90;;;;;;5041499;28;20032;-59
2022/11/11 13:50:36;;;;;;;6.65;3.20;;;15.60;99.90;;;;;;5036643;28;20572;-59
2022/11/11 13:53:04;;;;;;;2.90;2.35;;;15.60;99.90;;;;;;5029118;28;20393;-59
2022/11/11 13:55:39;;;;;;;6.22;3.03;;;15.50;99.90;;;;;;5028853;28;20030;-59
2022/11/11 13:58:17;;;;;;;2.70;2.10;;;15.50;99.90;;;;;;5036267;28;20024;-59
2022/11/11 14:00:44;;;;;;;2.88;2.05;;;15.40;99.90;;;;;;5028895;28;20146;-58
2022/11/11 14:03:20;;;;;;;6.70;2.40;;;15.40;99.90;;;;;;5028591;28;20025;-59
2022/11/11 14:06:07;;;;;;;5.35;2.58;;;15.30;99.90;;;;;;5027657;28;20555;-59
2022/11/11 14:08:53;;;;;;;7.75;2.83;;;15.30;99.90;;;;;;5028737;28;20024;-59
2022/11/11 14:11:27;;;;;;;4.65;2.92;;;15.20;99.90;;;;;;5029786;28;20036;-59
2022/11/11 14:13:58;;;;;;;5.75;2.55;;;15.20;99.90;;;;;;5023283;28;20025;-60
2022/11/11 14:16:35;;;;;;;6.57;2.90;;;15.10;99.90;;;;;;5028119;28;20035;-59